sensor_id;sensor_type;location;lat;lon;timestamp;temperature;humidity
19060;DHT22;9663;48.996;8.334;2022-07-29T00:00:10;25.30;35.30
19060;DHT22;9663;48.996;8.334;2022-07-29T00:02:36;25.30;35.50
19060;DHT22;9663;48.996;8.334;2022-07-29T00:05:03;25.30;35.60
19060;DHT22;9663;48.996;8.334;2022-07-29T00:07:29;25.30;35.80
19060;DHT22;9663;48.996;8.334;2022-07-29T00:09:56;25.20;35.90
19060;DHT22;9663;48.996;8.334;2022-07-29T00:12:23;25.20;36.00
19060;DHT22;9663;48.996;8.334;2022-07-29T00:14:50;25.10;36.10
19060;DHT22;9663;48.996;8.334;2022-07-29T00:17:16;25.00;36.10
19060;DHT22;9663;48.996;8.334;2022-07-29T00:19:42;25.00;36.20
19060;DHT22;9663;48.996;8.334;2022-07-29T00:22:08;25.00;36.40
19060;DHT22;9663;48.996;8.334;2022-07-29T00:24:33;25.00;36.50
19060;DHT22;9663;48.996;8.334;2022-07-29T00:26:59;24.90;36.60
19060;DHT22;9663;48.996;8.334;2022-07-29T00:29:25;24.80;36.70
19060;DHT22;9663;48.996;8.334;2022-07-29T00:31:51;24.70;36.80
19060;DHT22;9663;48.996;8.334;2022-07-29T00:34:17;24.70;36.90
19060;DHT22;9663;48.996;8.334;2022-07-29T00:37:01;24.60;37.10
19060;DHT22;9663;48.996;8.334;2022-07-29T00:39:27;24.50;37.20
19060;DHT22;9663;48.996;8.334;2022-07-29T00:41:52;24.40;37.40
19060;DHT22;9663;48.996;8.334;2022-07-29T00:44:19;24.30;37.60
19060;DHT22;9663;48.996;8.334;2022-07-29T00:46:44;24.10;37.70
19060;DHT22;9663;48.996;8.334;2022-07-29T00:49:10;24.20;37.90
19060;DHT22;9663;48.996;8.334;2022-07-29T00:51:36;24.10;38.10
19060;DHT22;9663;48.996;8.334;2022-07-29T00:54:03;24.00;38.20
19060;DHT22;9663;48.996;8.334;2022-07-29T00:56:31;23.90;38.30
19060;DHT22;9663;48.996;8.334;2022-07-29T00:58:58;23.90;38.50
19060;DHT22;9663;48.996;8.334;2022-07-29T01:01:25;23.80;38.60
19060;DHT22;9663;48.996;8.334;2022-07-29T01:03:52;23.70;38.70
19060;DHT22;9663;48.996;8.334;2022-07-29T01:06:18;23.70;38.90
19060;DHT22;9663;48.996;8.334;2022-07-29T01:08:45;23.60;39.00
19060;DHT22;9663;48.996;8.334;2022-07-29T01:11:13;23.50;39.30
19060;DHT22;9663;48.996;8.334;2022-07-29T01:13:40;23.40;39.40
19060;DHT22;9663;48.996;8.334;2022-07-29T01:16:18;23.40;39.60
19060;DHT22;9663;48.996;8.334;2022-07-29T01:18:52;23.40;40.40
19060;DHT22;9663;48.996;8.334;2022-07-29T01:21:57;23.30;40.10
19060;DHT22;9663;48.996;8.334;2022-07-29T01:25:00;23.20;41.50
19060;DHT22;9663;48.996;8.334;2022-07-29T01:28:01;23.10;40.70
19060;DHT22;9663;48.996;8.334;2022-07-29T01:30:32;23.10;41.40
19060;DHT22;9663;48.996;8.334;2022-07-29T01:33:07;23.00;40.40
19060;DHT22;9663;48.996;8.334;2022-07-29T01:35:56;22.90;41.10
19060;DHT22;9663;48.996;8.334;2022-07-29T01:38:25;22.80;40.40
19060;DHT22;9663;48.996;8.334;2022-07-29T01:41:08;22.80;40.80
19060;DHT22;9663;48.996;8.334;2022-07-29T01:43:46;22.70;41.50
19060;DHT22;9663;48.996;8.334;2022-07-29T01:46:21;22.60;41.90
19060;DHT22;9663;48.996;8.334;2022-07-29T01:48:57;22.60;41.80
19060;DHT22;9663;48.996;8.334;2022-07-29T01:51:47;22.50;41.90
19060;DHT22;9663;48.996;8.334;2022-07-29T01:54:28;22.40;42.90
19060;DHT22;9663;48.996;8.334;2022-07-29T01:57:00;22.40;42.10
19060;DHT22;9663;48.996;8.334;2022-07-29T01:59:29;22.30;41.80
19060;DHT22;9663;48.996;8.334;2022-07-29T02:01:58;22.30;42.00
19060;DHT22;9663;48.996;8.334;2022-07-29T02:04:27;22.30;42.40
19060;DHT22;9663;48.996;8.334;2022-07-29T02:06:58;22.20;42.40
19060;DHT22;9663;48.996;8.334;2022-07-29T02:09:28;22.30;42.80
19060;DHT22;9663;48.996;8.334;2022-07-29T02:11:56;22.20;42.70
19060;DHT22;9663;48.996;8.334;2022-07-29T02:14:23;22.20;42.70
19060;DHT22;9663;48.996;8.334;2022-07-29T02:16:52;22.20;42.60
19060;DHT22;9663;48.996;8.334;2022-07-29T02:19:22;22.20;43.10
19060;DHT22;9663;48.996;8.334;2022-07-29T02:21:52;22.30;43.00
19060;DHT22;9663;48.996;8.334;2022-07-29T02:24:21;22.30;43.10
19060;DHT22;9663;48.996;8.334;2022-07-29T02:26:50;22.30;43.20
19060;DHT22;9663;48.996;8.334;2022-07-29T02:29:25;22.30;43.20
19060;DHT22;9663;48.996;8.334;2022-07-29T02:31:52;22.30;43.50
19060;DHT22;9663;48.996;8.334;2022-07-29T02:34:20;22.40;43.40
19060;DHT22;9663;48.996;8.334;2022-07-29T02:36:48;22.40;43.40
19060;DHT22;9663;48.996;8.334;2022-07-29T02:39:15;22.40;43.50
19060;DHT22;9663;48.996;8.334;2022-07-29T02:41:47;22.40;43.50
19060;DHT22;9663;48.996;8.334;2022-07-29T02:44:21;22.40;43.70
19060;DHT22;9663;48.996;8.334;2022-07-29T02:49:55;22.30;44.10
19060;DHT22;9663;48.996;8.334;2022-07-29T02:55:29;22.20;44.00
19060;DHT22;9663;48.996;8.334;2022-07-29T02:58:08;22.10;44.00
19060;DHT22;9663;48.996;8.334;2022-07-29T03:00:55;22.00;44.30
19060;DHT22;9663;48.996;8.334;2022-07-29T03:03:27;22.00;44.10
19060;DHT22;9663;48.996;8.334;2022-07-29T03:05:57;21.80;44.40
19060;DHT22;9663;48.996;8.334;2022-07-29T03:08:26;21.80;44.60
19060;DHT22;9663;48.996;8.334;2022-07-29T03:10:53;21.70;44.60
19060;DHT22;9663;48.996;8.334;2022-07-29T03:13:20;21.60;44.60
19060;DHT22;9663;48.996;8.334;2022-07-29T03:15:47;21.60;44.80
19060;DHT22;9663;48.996;8.334;2022-07-29T03:18:14;21.50;45.00
19060;DHT22;9663;48.996;8.334;2022-07-29T03:20:40;21.50;45.20
19060;DHT22;9663;48.996;8.334;2022-07-29T03:23:07;21.40;45.30
19060;DHT22;9663;48.996;8.334;2022-07-29T03:25:33;21.40;45.40
19060;DHT22;9663;48.996;8.334;2022-07-29T03:27:59;21.40;45.50
19060;DHT22;9663;48.996;8.334;2022-07-29T03:30:25;21.40;45.70
19060;DHT22;9663;48.996;8.334;2022-07-29T03:32:51;21.30;45.70
19060;DHT22;9663;48.996;8.334;2022-07-29T03:35:20;21.30;46.00
19060;DHT22;9663;48.996;8.334;2022-07-29T03:37:45;21.30;46.00
19060;DHT22;9663;48.996;8.334;2022-07-29T03:40:16;21.30;46.00
19060;DHT22;9663;48.996;8.334;2022-07-29T03:42:49;21.20;46.40
19060;DHT22;9663;48.996;8.334;2022-07-29T03:45:18;21.20;46.40
19060;DHT22;9663;48.996;8.334;2022-07-29T03:47:50;21.20;46.60
19060;DHT22;9663;48.996;8.334;2022-07-29T03:50:21;21.10;46.60
19060;DHT22;9663;48.996;8.334;2022-07-29T03:52:48;21.10;46.40
19060;DHT22;9663;48.996;8.334;2022-07-29T03:55:15;21.00;46.50
19060;DHT22;9663;48.996;8.334;2022-07-29T03:57:42;21.00;46.70
19060;DHT22;9663;48.996;8.334;2022-07-29T04:00:10;20.90;46.80
19060;DHT22;9663;48.996;8.334;2022-07-29T04:02:38;20.90;46.90
19060;DHT22;9663;48.996;8.334;2022-07-29T04:05:05;20.90;47.10
19060;DHT22;9663;48.996;8.334;2022-07-29T04:07:37;20.80;47.10
19060;DHT22;9663;48.996;8.334;2022-07-29T04:10:03;20.90;47.20
19060;DHT22;9663;48.996;8.334;2022-07-29T04:12:29;20.80;47.30
19060;DHT22;9663;48.996;8.334;2022-07-29T04:14:54;20.80;47.30
19060;DHT22;9663;48.996;8.334;2022-07-29T04:17:20;20.80;47.50
19060;DHT22;9663;48.996;8.334;2022-07-29T04:19:46;20.80;47.60
19060;DHT22;9663;48.996;8.334;2022-07-29T04:22:11;20.80;47.60
19060;DHT22;9663;48.996;8.334;2022-07-29T04:24:37;20.70;47.70
19060;DHT22;9663;48.996;8.334;2022-07-29T04:27:03;20.70;47.70
19060;DHT22;9663;48.996;8.334;2022-07-29T04:29:28;20.70;47.80
19060;DHT22;9663;48.996;8.334;2022-07-29T04:31:54;20.70;47.90
19060;DHT22;9663;48.996;8.334;2022-07-29T04:34:19;20.70;48.00
19060;DHT22;9663;48.996;8.334;2022-07-29T04:36:45;20.70;48.10
19060;DHT22;9663;48.996;8.334;2022-07-29T04:39:11;20.70;48.30
19060;DHT22;9663;48.996;8.334;2022-07-29T04:41:36;20.70;48.30
19060;DHT22;9663;48.996;8.334;2022-07-29T04:44:02;20.70;48.40
19060;DHT22;9663;48.996;8.334;2022-07-29T04:46:30;20.60;48.30
19060;DHT22;9663;48.996;8.334;2022-07-29T04:48:57;20.70;48.50
19060;DHT22;9663;48.996;8.334;2022-07-29T04:51:22;20.70;48.50
19060;DHT22;9663;48.996;8.334;2022-07-29T04:53:48;20.70;48.60
19060;DHT22;9663;48.996;8.334;2022-07-29T04:56:14;20.70;48.70
19060;DHT22;9663;48.996;8.334;2022-07-29T04:58:39;20.70;48.70
19060;DHT22;9663;48.996;8.334;2022-07-29T05:01:05;20.60;48.70
19060;DHT22;9663;48.996;8.334;2022-07-29T05:03:31;20.70;48.90
19060;DHT22;9663;48.996;8.334;2022-07-29T05:05:56;20.70;48.90
19060;DHT22;9663;48.996;8.334;2022-07-29T05:08:22;20.70;48.80
19060;DHT22;9663;48.996;8.334;2022-07-29T05:10:48;20.70;48.90
19060;DHT22;9663;48.996;8.334;2022-07-29T05:13:13;20.70;49.20
19060;DHT22;9663;48.996;8.334;2022-07-29T05:15:39;20.80;49.00
19060;DHT22;9663;48.996;8.334;2022-07-29T05:18:05;20.80;49.00
19060;DHT22;9663;48.996;8.334;2022-07-29T05:20:31;20.80;49.10
19060;DHT22;9663;48.996;8.334;2022-07-29T05:23:01;20.90;49.10
19060;DHT22;9663;48.996;8.334;2022-07-29T05:25:28;21.00;49.20
19060;DHT22;9663;48.996;8.334;2022-07-29T05:27:55;21.00;49.10
19060;DHT22;9663;48.996;8.334;2022-07-29T05:30:21;21.10;49.00
19060;DHT22;9663;48.996;8.334;2022-07-29T05:32:47;21.20;49.00
19060;DHT22;9663;48.996;8.334;2022-07-29T05:35:14;21.30;49.00
19060;DHT22;9663;48.996;8.334;2022-07-29T05:37:40;21.30;48.90
19060;DHT22;9663;48.996;8.334;2022-07-29T05:40:08;21.40;48.90
19060;DHT22;9663;48.996;8.334;2022-07-29T05:42:35;21.50;48.90
19060;DHT22;9663;48.996;8.334;2022-07-29T05:45:01;21.60;48.80
19060;DHT22;9663;48.996;8.334;2022-07-29T05:47:27;21.70;48.70
19060;DHT22;9663;48.996;8.334;2022-07-29T05:49:57;21.80;49.30
19060;DHT22;9663;48.996;8.334;2022-07-29T05:52:23;21.90;48.60
19060;DHT22;9663;48.996;8.334;2022-07-29T05:54:49;22.00;48.50
19060;DHT22;9663;48.996;8.334;2022-07-29T05:57:16;22.10;49.20
19060;DHT22;9663;48.996;8.334;2022-07-29T05:59:42;22.20;48.40
19060;DHT22;9663;48.996;8.334;2022-07-29T06:02:08;22.20;48.30
19060;DHT22;9663;48.996;8.334;2022-07-29T06:04:34;22.20;48.20
19060;DHT22;9663;48.996;8.334;2022-07-29T06:06:59;22.30;48.30
19060;DHT22;9663;48.996;8.334;2022-07-29T06:09:25;22.40;48.20
19060;DHT22;9663;48.996;8.334;2022-07-29T06:11:51;22.50;48.30
19060;DHT22;9663;48.996;8.334;2022-07-29T06:14:17;22.60;48.30
19060;DHT22;9663;48.996;8.334;2022-07-29T06:16:43;22.70;48.20
19060;DHT22;9663;48.996;8.334;2022-07-29T06:19:09;22.90;48.30
19060;DHT22;9663;48.996;8.334;2022-07-29T06:21:35;23.00;48.20
19060;DHT22;9663;48.996;8.334;2022-07-29T06:24:01;23.10;48.10
19060;DHT22;9663;48.996;8.334;2022-07-29T06:26:27;23.10;48.00
19060;DHT22;9663;48.996;8.334;2022-07-29T06:28:53;23.30;47.90
19060;DHT22;9663;48.996;8.334;2022-07-29T06:31:18;23.30;47.80
19060;DHT22;9663;48.996;8.334;2022-07-29T06:33:44;23.50;47.70
19060;DHT22;9663;48.996;8.334;2022-07-29T06:36:10;23.60;47.70
19060;DHT22;9663;48.996;8.334;2022-07-29T06:38:35;23.60;47.70
19060;DHT22;9663;48.996;8.334;2022-07-29T06:41:03;23.70;47.60
19060;DHT22;9663;48.996;8.334;2022-07-29T06:43:38;23.90;47.60
19060;DHT22;9663;48.996;8.334;2022-07-29T06:46:08;24.00;47.80
19060;DHT22;9663;48.996;8.334;2022-07-29T06:48:37;24.10;47.40
19060;DHT22;9663;48.996;8.334;2022-07-29T06:51:04;24.20;47.30
19060;DHT22;9663;48.996;8.334;2022-07-29T06:53:32;24.30;47.30
19060;DHT22;9663;48.996;8.334;2022-07-29T06:55:59;24.40;47.20
19060;DHT22;9663;48.996;8.334;2022-07-29T06:58:27;24.40;47.10
19060;DHT22;9663;48.996;8.334;2022-07-29T07:00:54;24.50;47.10
19060;DHT22;9663;48.996;8.334;2022-07-29T07:03:21;24.50;47.00
19060;DHT22;9663;48.996;8.334;2022-07-29T07:05:48;24.60;47.00
19060;DHT22;9663;48.996;8.334;2022-07-29T07:08:14;24.70;47.10
19060;DHT22;9663;48.996;8.334;2022-07-29T07:10:41;24.70;47.00
19060;DHT22;9663;48.996;8.334;2022-07-29T07:13:08;24.90;47.10
19060;DHT22;9663;48.996;8.334;2022-07-29T07:15:36;25.00;47.00
19060;DHT22;9663;48.996;8.334;2022-07-29T07:18:03;25.10;46.80
19060;DHT22;9663;48.996;8.334;2022-07-29T07:20:29;25.20;46.70
19060;DHT22;9663;48.996;8.334;2022-07-29T07:22:55;25.20;46.60
19060;DHT22;9663;48.996;8.334;2022-07-29T07:25:20;25.30;46.50
19060;DHT22;9663;48.996;8.334;2022-07-29T07:27:46;25.40;46.50
19060;DHT22;9663;48.996;8.334;2022-07-29T07:30:12;25.60;46.60
19060;DHT22;9663;48.996;8.334;2022-07-29T07:32:38;25.70;46.50
19060;DHT22;9663;48.996;8.334;2022-07-29T07:35:06;25.80;46.30
19060;DHT22;9663;48.996;8.334;2022-07-29T07:37:33;25.90;46.30
19060;DHT22;9663;48.996;8.334;2022-07-29T07:40:00;26.10;46.20
19060;DHT22;9663;48.996;8.334;2022-07-29T07:42:26;26.20;46.10
19060;DHT22;9663;48.996;8.334;2022-07-29T07:44:52;26.30;45.90
19060;DHT22;9663;48.996;8.334;2022-07-29T07:47:18;26.30;45.70
19060;DHT22;9663;48.996;8.334;2022-07-29T07:49:49;26.40;45.90
19060;DHT22;9663;48.996;8.334;2022-07-29T07:52:16;26.60;45.90
19060;DHT22;9663;48.996;8.334;2022-07-29T07:54:43;26.70;45.50
19060;DHT22;9663;48.996;8.334;2022-07-29T07:57:10;26.70;45.10
19060;DHT22;9663;48.996;8.334;2022-07-29T07:59:39;26.70;45.00
19060;DHT22;9663;48.996;8.334;2022-07-29T08:02:05;26.70;45.10
19060;DHT22;9663;48.996;8.334;2022-07-29T08:04:32;26.70;45.10
19060;DHT22;9663;48.996;8.334;2022-07-29T08:06:58;26.80;45.10
19060;DHT22;9663;48.996;8.334;2022-07-29T08:09:26;26.90;45.00
19060;DHT22;9663;48.996;8.334;2022-07-29T08:11:53;26.90;44.70
19060;DHT22;9663;48.996;8.334;2022-07-29T08:14:19;26.90;44.60
19060;DHT22;9663;48.996;8.334;2022-07-29T08:16:45;27.00;44.50
19060;DHT22;9663;48.996;8.334;2022-07-29T08:19:11;27.00;44.50
19060;DHT22;9663;48.996;8.334;2022-07-29T08:21:37;27.00;44.40
19060;DHT22;9663;48.996;8.334;2022-07-29T08:24:03;27.00;44.40
19060;DHT22;9663;48.996;8.334;2022-07-29T08:26:48;27.00;44.40
19060;DHT22;9663;48.996;8.334;2022-07-29T08:29:14;27.10;44.50
19060;DHT22;9663;48.996;8.334;2022-07-29T08:31:40;27.20;44.70
19060;DHT22;9663;48.996;8.334;2022-07-29T08:34:06;27.40;44.70
19060;DHT22;9663;48.996;8.334;2022-07-29T08:36:32;27.50;44.50
19060;DHT22;9663;48.996;8.334;2022-07-29T08:38:59;27.70;44.40
19060;DHT22;9663;48.996;8.334;2022-07-29T08:41:26;27.90;44.50
19060;DHT22;9663;48.996;8.334;2022-07-29T08:43:55;28.10;44.20
19060;DHT22;9663;48.996;8.334;2022-07-29T08:46:21;28.30;44.10
19060;DHT22;9663;48.996;8.334;2022-07-29T08:48:48;28.50;44.00
19060;DHT22;9663;48.996;8.334;2022-07-29T08:51:16;28.60;43.70
19060;DHT22;9663;48.996;8.334;2022-07-29T08:53:46;28.80;43.30
19060;DHT22;9663;48.996;8.334;2022-07-29T08:56:17;28.90;43.00
19060;DHT22;9663;48.996;8.334;2022-07-29T08:58:44;28.90;42.50
19060;DHT22;9663;48.996;8.334;2022-07-29T09:01:16;28.90;42.40
19060;DHT22;9663;48.996;8.334;2022-07-29T09:03:44;28.90;42.30
19060;DHT22;9663;48.996;8.334;2022-07-29T09:06:15;28.90;42.40
19060;DHT22;9663;48.996;8.334;2022-07-29T09:08:44;28.90;42.20
19060;DHT22;9663;48.996;8.334;2022-07-29T09:11:11;28.90;42.20
19060;DHT22;9663;48.996;8.334;2022-07-29T09:13:39;28.90;42.20
19060;DHT22;9663;48.996;8.334;2022-07-29T09:16:06;29.00;42.30
19060;DHT22;9663;48.996;8.334;2022-07-29T09:18:43;29.10;42.20
19060;DHT22;9663;48.996;8.334;2022-07-29T09:21:12;29.10;42.50
19060;DHT22;9663;48.996;8.334;2022-07-29T09:24:10;29.20;41.80
19060;DHT22;9663;48.996;8.334;2022-07-29T09:26:39;29.20;41.30
19060;DHT22;9663;48.996;8.334;2022-07-29T09:29:15;29.20;41.60
19060;DHT22;9663;48.996;8.334;2022-07-29T09:31:49;29.20;41.20
19060;DHT22;9663;48.996;8.334;2022-07-29T09:34:27;29.30;41.20
19060;DHT22;9663;48.996;8.334;2022-07-29T09:36:56;29.30;41.50
19060;DHT22;9663;48.996;8.334;2022-07-29T09:39:39;29.40;41.80
19060;DHT22;9663;48.996;8.334;2022-07-29T09:42:11;29.50;41.00
19060;DHT22;9663;48.996;8.334;2022-07-29T09:44:45;29.60;41.30
19060;DHT22;9663;48.996;8.334;2022-07-29T09:47:11;29.60;41.10
19060;DHT22;9663;48.996;8.334;2022-07-29T09:49:59;29.70;41.40
19060;DHT22;9663;48.996;8.334;2022-07-29T09:52:29;29.90;40.90
19060;DHT22;9663;48.996;8.334;2022-07-29T09:55:09;30.10;41.00
19060;DHT22;9663;48.996;8.334;2022-07-29T09:57:35;30.20;40.50
19060;DHT22;9663;48.996;8.334;2022-07-29T10:00:12;30.40;40.90
19060;DHT22;9663;48.996;8.334;2022-07-29T10:02:42;30.50;41.20
19060;DHT22;9663;48.996;8.334;2022-07-29T10:05:20;30.50;40.60
19060;DHT22;9663;48.996;8.334;2022-07-29T10:07:54;30.60;40.00
19060;DHT22;9663;48.996;8.334;2022-07-29T10:10:26;30.70;40.10
19060;DHT22;9663;48.996;8.334;2022-07-29T10:12:56;30.70;39.80
19060;DHT22;9663;48.996;8.334;2022-07-29T10:15:24;30.70;39.70
19060;DHT22;9663;48.996;8.334;2022-07-29T10:17:56;30.70;39.60
19060;DHT22;9663;48.996;8.334;2022-07-29T10:20:23;30.70;39.80
19060;DHT22;9663;48.996;8.334;2022-07-29T10:22:51;30.80;39.60
19060;DHT22;9663;48.996;8.334;2022-07-29T10:25:18;30.80;39.30
19060;DHT22;9663;48.996;8.334;2022-07-29T10:27:48;30.90;39.30
19060;DHT22;9663;48.996;8.334;2022-07-29T10:30:16;31.00;39.60
19060;DHT22;9663;48.996;8.334;2022-07-29T10:35:34;31.10;39.00
19060;DHT22;9663;48.996;8.334;2022-07-29T10:43:59;31.40;38.10
19060;DHT22;9663;48.996;8.334;2022-07-29T10:46:27;31.50;38.20
19060;DHT22;9663;48.996;8.334;2022-07-29T10:49:07;31.60;38.10
19060;DHT22;9663;48.996;8.334;2022-07-29T10:51:51;31.60;37.50
19060;DHT22;9663;48.996;8.334;2022-07-29T10:54:18;31.70;37.50
19060;DHT22;9663;48.996;8.334;2022-07-29T10:56:44;31.70;38.00
19060;DHT22;9663;48.996;8.334;2022-07-29T11:01:52;32.00;37.00
19060;DHT22;9663;48.996;8.334;2022-07-29T11:07:11;32.40;36.70
19060;DHT22;9663;48.996;8.334;2022-07-29T11:09:38;32.60;37.30
19060;DHT22;9663;48.996;8.334;2022-07-29T11:15:02;32.90;36.20
19060;DHT22;9663;48.996;8.334;2022-07-29T11:23:29;33.40;35.10
19060;DHT22;9663;48.996;8.334;2022-07-29T11:29:20;33.80;35.30
19060;DHT22;9663;48.996;8.334;2022-07-29T11:31:49;33.90;34.70
19060;DHT22;9663;48.996;8.334;2022-07-29T11:34:37;34.00;35.10
19060;DHT22;9663;48.996;8.334;2022-07-29T11:39:41;33.80;34.10
19060;DHT22;9663;48.996;8.334;2022-07-29T11:45:09;33.70;34.40
19060;DHT22;9663;48.996;8.334;2022-07-29T11:47:37;33.80;34.20
19060;DHT22;9663;48.996;8.334;2022-07-29T11:50:10;33.90;34.80
19060;DHT22;9663;48.996;8.334;2022-07-29T11:52:43;33.90;34.40
19060;DHT22;9663;48.996;8.334;2022-07-29T11:55:19;33.80;33.60
19060;DHT22;9663;48.996;8.334;2022-07-29T11:57:49;33.70;33.40
19060;DHT22;9663;48.996;8.334;2022-07-29T12:00:29;33.60;34.00
19060;DHT22;9663;48.996;8.334;2022-07-29T12:02:58;33.50;33.50
19060;DHT22;9663;48.996;8.334;2022-07-29T12:08:09;33.70;33.40
19060;DHT22;9663;48.996;8.334;2022-07-29T12:10:37;34.00;34.10
19060;DHT22;9663;48.996;8.334;2022-07-29T12:13:04;34.20;33.90
19060;DHT22;9663;48.996;8.334;2022-07-29T12:15:30;34.30;33.60
19060;DHT22;9663;48.996;8.334;2022-07-29T12:17:56;34.40;33.50
19060;DHT22;9663;48.996;8.334;2022-07-29T12:20:27;34.60;33.40
19060;DHT22;9663;48.996;8.334;2022-07-29T12:22:55;34.60;32.90
19060;DHT22;9663;48.996;8.334;2022-07-29T12:25:23;34.70;33.00
19060;DHT22;9663;48.996;8.334;2022-07-29T12:28:04;34.70;32.80
19060;DHT22;9663;48.996;8.334;2022-07-29T12:30:40;34.70;31.80
19060;DHT22;9663;48.996;8.334;2022-07-29T12:33:22;34.70;32.20
19060;DHT22;9663;48.996;8.334;2022-07-29T12:35:50;34.70;32.20
19060;DHT22;9663;48.996;8.334;2022-07-29T12:38:19;34.90;32.60
19060;DHT22;9663;48.996;8.334;2022-07-29T12:40:46;35.10;32.50
19060;DHT22;9663;48.996;8.334;2022-07-29T12:43:16;35.20;32.30
19060;DHT22;9663;48.996;8.334;2022-07-29T12:45:51;35.40;31.50
19060;DHT22;9663;48.996;8.334;2022-07-29T12:48:41;35.50;30.90
19060;DHT22;9663;48.996;8.334;2022-07-29T12:51:09;35.50;30.30
19060;DHT22;9663;48.996;8.334;2022-07-29T12:53:37;35.50;30.80
19060;DHT22;9663;48.996;8.334;2022-07-29T12:56:04;35.50;31.00
19060;DHT22;9663;48.996;8.334;2022-07-29T12:58:37;35.50;30.90
19060;DHT22;9663;48.996;8.334;2022-07-29T13:03:52;35.40;30.50
19060;DHT22;9663;48.996;8.334;2022-07-29T13:06:40;35.20;30.00
19060;DHT22;9663;48.996;8.334;2022-07-29T13:09:16;35.10;30.00
19060;DHT22;9663;48.996;8.334;2022-07-29T13:11:50;35.00;30.10
19060;DHT22;9663;48.996;8.334;2022-07-29T13:14:38;34.90;30.00
19060;DHT22;9663;48.996;8.334;2022-07-29T13:17:17;34.70;29.20
19060;DHT22;9663;48.996;8.334;2022-07-29T13:20:04;34.60;30.00
19060;DHT22;9663;48.996;8.334;2022-07-29T13:22:34;34.40;30.00
19060;DHT22;9663;48.996;8.334;2022-07-29T13:25:01;34.40;30.40
19060;DHT22;9663;48.996;8.334;2022-07-29T13:27:30;34.30;30.20
19060;DHT22;9663;48.996;8.334;2022-07-29T13:30:00;34.20;30.00
19060;DHT22;9663;48.996;8.334;2022-07-29T13:32:29;34.10;30.00
19060;DHT22;9663;48.996;8.334;2022-07-29T13:34:57;34.00;29.90
19060;DHT22;9663;48.996;8.334;2022-07-29T13:37:25;33.80;30.00
19060;DHT22;9663;48.996;8.334;2022-07-29T13:39:57;33.80;30.20
19060;DHT22;9663;48.996;8.334;2022-07-29T13:42:23;33.70;30.40
19060;DHT22;9663;48.996;8.334;2022-07-29T13:44:50;33.70;30.40
19060;DHT22;9663;48.996;8.334;2022-07-29T13:47:18;33.70;30.30
19060;DHT22;9663;48.996;8.334;2022-07-29T13:49:44;33.60;30.00
19060;DHT22;9663;48.996;8.334;2022-07-29T13:52:10;33.50;29.90
19060;DHT22;9663;48.996;8.334;2022-07-29T13:54:36;33.50;30.10
19060;DHT22;9663;48.996;8.334;2022-07-29T13:57:05;33.50;30.50
19060;DHT22;9663;48.996;8.334;2022-07-29T13:59:30;33.60;30.50
19060;DHT22;9663;48.996;8.334;2022-07-29T14:01:57;33.70;30.40
19060;DHT22;9663;48.996;8.334;2022-07-29T14:04:22;33.80;30.10
19060;DHT22;9663;48.996;8.334;2022-07-29T14:06:51;33.90;30.20
19060;DHT22;9663;48.996;8.334;2022-07-29T14:09:17;34.10;30.00
19060;DHT22;9663;48.996;8.334;2022-07-29T14:11:43;34.30;30.00
19060;DHT22;9663;48.996;8.334;2022-07-29T14:14:11;34.40;30.00
19060;DHT22;9663;48.996;8.334;2022-07-29T14:16:36;34.60;30.00
19060;DHT22;9663;48.996;8.334;2022-07-29T14:19:02;34.70;30.50
19060;DHT22;9663;48.996;8.334;2022-07-29T14:21:28;34.90;29.30
19060;DHT22;9663;48.996;8.334;2022-07-29T14:23:54;35.00;29.80
19060;DHT22;9663;48.996;8.334;2022-07-29T14:26:21;35.10;29.10
19060;DHT22;9663;48.996;8.334;2022-07-29T14:28:48;35.20;28.90
19060;DHT22;9663;48.996;8.334;2022-07-29T14:31:14;35.30;28.80
19060;DHT22;9663;48.996;8.334;2022-07-29T14:33:40;35.30;28.30
19060;DHT22;9663;48.996;8.334;2022-07-29T14:36:07;35.30;28.60
19060;DHT22;9663;48.996;8.334;2022-07-29T14:38:33;35.30;28.70
19060;DHT22;9663;48.996;8.334;2022-07-29T14:40:58;35.40;28.50
19060;DHT22;9663;48.996;8.334;2022-07-29T14:43:24;35.40;28.60
19060;DHT22;9663;48.996;8.334;2022-07-29T14:45:50;35.60;28.80
19060;DHT22;9663;48.996;8.334;2022-07-29T14:48:15;35.70;28.60
19060;DHT22;9663;48.996;8.334;2022-07-29T14:50:41;35.80;28.40
19060;DHT22;9663;48.996;8.334;2022-07-29T14:53:06;35.90;28.80
19060;DHT22;9663;48.996;8.334;2022-07-29T14:55:32;36.00;28.20
19060;DHT22;9663;48.996;8.334;2022-07-29T14:57:58;36.10;28.00
19060;DHT22;9663;48.996;8.334;2022-07-29T15:00:25;36.20;27.90
19060;DHT22;9663;48.996;8.334;2022-07-29T15:02:51;36.40;27.80
19060;DHT22;9663;48.996;8.334;2022-07-29T15:05:17;36.50;27.80
19060;DHT22;9663;48.996;8.334;2022-07-29T15:07:42;36.60;27.30
19060;DHT22;9663;48.996;8.334;2022-07-29T15:10:08;36.80;27.80
19060;DHT22;9663;48.996;8.334;2022-07-29T15:12:34;36.80;26.90
19060;DHT22;9663;48.996;8.334;2022-07-29T15:15:00;36.70;27.00
19060;DHT22;9663;48.996;8.334;2022-07-29T15:17:26;36.70;26.80
19060;DHT22;9663;48.996;8.334;2022-07-29T15:19:52;36.70;26.80
19060;DHT22;9663;48.996;8.334;2022-07-29T15:22:18;36.60;26.80
19060;DHT22;9663;48.996;8.334;2022-07-29T15:24:43;36.70;26.80
19060;DHT22;9663;48.996;8.334;2022-07-29T15:27:10;36.70;26.70
19060;DHT22;9663;48.996;8.334;2022-07-29T15:29:43;36.90;26.70
19060;DHT22;9663;48.996;8.334;2022-07-29T15:32:10;37.00;26.90
19060;DHT22;9663;48.996;8.334;2022-07-29T15:34:36;37.40;27.20
19060;DHT22;9663;48.996;8.334;2022-07-29T15:37:04;37.80;26.90
19060;DHT22;9663;48.996;8.334;2022-07-29T15:39:30;38.20;26.70
19060;DHT22;9663;48.996;8.334;2022-07-29T15:41:56;38.50;26.10
19060;DHT22;9663;48.996;8.334;2022-07-29T15:44:22;38.80;26.00
19060;DHT22;9663;48.996;8.334;2022-07-29T15:46:49;38.90;26.00
19060;DHT22;9663;48.996;8.334;2022-07-29T15:49:39;39.20;25.60
19060;DHT22;9663;48.996;8.334;2022-07-29T15:52:07;39.30;24.50
19060;DHT22;9663;48.996;8.334;2022-07-29T15:54:36;39.30;25.20
19060;DHT22;9663;48.996;8.334;2022-07-29T15:57:04;39.00;24.10
19060;DHT22;9663;48.996;8.334;2022-07-29T15:59:30;38.70;24.10
19060;DHT22;9663;48.996;8.334;2022-07-29T16:01:57;38.30;24.00
19060;DHT22;9663;48.996;8.334;2022-07-29T16:04:23;37.90;24.00
19060;DHT22;9663;48.996;8.334;2022-07-29T16:06:49;37.40;24.00
19060;DHT22;9663;48.996;8.334;2022-07-29T16:09:16;37.10;24.10
19060;DHT22;9663;48.996;8.334;2022-07-29T16:11:42;36.70;24.30
19060;DHT22;9663;48.996;8.334;2022-07-29T16:14:08;36.40;24.70
19060;DHT22;9663;48.996;8.334;2022-07-29T16:16:36;36.30;25.10
19060;DHT22;9663;48.996;8.334;2022-07-29T16:19:03;36.40;25.40
19060;DHT22;9663;48.996;8.334;2022-07-29T16:21:30;36.60;25.60
19060;DHT22;9663;48.996;8.334;2022-07-29T16:23:58;37.00;26.00
19060;DHT22;9663;48.996;8.334;2022-07-29T16:26:25;37.50;26.00
19060;DHT22;9663;48.996;8.334;2022-07-29T16:28:51;38.10;25.80
19060;DHT22;9663;48.996;8.334;2022-07-29T16:31:17;38.50;25.30
19060;DHT22;9663;48.996;8.334;2022-07-29T16:33:46;38.80;25.30
19060;DHT22;9663;48.996;8.334;2022-07-29T16:36:12;39.30;25.30
19060;DHT22;9663;48.996;8.334;2022-07-29T16:38:38;39.80;25.30